Wetterdaten: aktuell Montag, 06.07.2020 22:33
Datum Zeit Temp. 2m 5cm . Boden Feuchte A. Luftdruck Regen Wind Richtung Richtung Sonnenschein Helligkeit Solar Taupunkt Windchill
06.07.2020 22:33 12,2 C 8,6 C 74 % 1019,5 hPa 0,0 l/m 16,6 km/h (3 Bft) W45 275 0 min 0 lux 0 W/m 7,7 C 7,2 C
06.07.2020 22:29 12,3 C 8,6 C 74 % 1019,4 hPa 0,0 l/m 13,3 km/h (3 Bft) W-NW45 285 0 min 0 lux 0 W/m 7,8 C 8,6 C
06.07.2020 22:23 12,2 C 8,6 C 74 % 1019,5 hPa 0,0 l/m 22,8 km/h (4 Bft) W45 260 0 min 0 lux 0 W/m 7,7 C 5,4 C
06.07.2020 22:18 12,4 C 8,6 C 73 % 1019,4 hPa 0,0 l/m 13,4 km/h (3 Bft) W45 280 0 min 0 lux 0 W/m 7,7 C 8,7 C
06.07.2020 22:13 12,4 C 8,6 C 73 % 1019,4 hPa 0,0 l/m 12,2 km/h (2 Bft) W45 260 0 min 0 lux 0 W/m 7,7 C 9,2 C
06.07.2020 22:08 12,3 C 8,6 C 72 % 1019,4 hPa 0,0 l/m 10,1 km/h (2 Bft) W22.5 265 0 min 0 lux 0 W/m 7,4 C 10,1 C
06.07.2020 22:03 12,5 C 8,6 C 71 % 1019,4 hPa 0,0 l/m 7,7 km/h (2 Bft) W45 275 0 min 4 lux 0 W/m 7,4 C 11,7 C
06.07.2020 21:58 12,8 C 8,6 C 71 % 1019,4 hPa 0,0 l/m 10,8 km/h (2 Bft) W-SW22.5 255 0 min 15 lux 0 W/m 7,7 C 10,3 C
06.07.2020 21:53 12,9 C 8,6 C 71 % 1019,4 hPa 0,0 l/m 9,6 km/h (2 Bft) W22.5 265 0 min 36 lux 0 W/m 7,8 C 11,0 C
06.07.2020 21:49 13,0 C 8,6 C 71 % 1019,3 hPa 0,0 l/m 11,9 km/h (2 Bft) W-NW45 285 0 min 72 lux 0 W/m 7,9 C 10,0 C
06.07.2020 21:43 13,1 C 8,6 C 70 % 1019,3 hPa 0,0 l/m 8,2 km/h (2 Bft) W-NW22.5 285 0 min 127 lux 0 W/m 7,8 C 12,0 C
06.07.2020 21:38 13,1 C 8,6 C 69 % 1019,3 hPa 0,0 l/m 9,6 km/h (2 Bft) W45 270 0 min 168 lux 0 W/m 7,5 C 11,2 C
06.07.2020 21:33 13,2 C 8,6 C 69 % 1018,3 hPa 0,0 l/m 4,4 km/h (1 Bft) W-NW67.5 295 0 min 270 lux 0 W/m 7,6 C 13,2 C
06.07.2020 21:28 13,6 C 8,6 C 68 % 1018,2 hPa 0,0 l/m 10,4 km/h (2 Bft) W45 270 0 min 464 lux 0 W/m 7,8 C 11,4 C
06.07.2020 21:23 13,9 C 8,6 C 67 % 1018,2 hPa 0,0 l/m 7,9 km/h (2 Bft) W-NW67.5 285 0 min 775 lux 0 W/m 7,9 C 13,0 C
06.07.2020 21:18 13,9 C 8,6 C 67 % 1018,2 hPa 0,0 l/m 13,9 km/h (3 Bft) W67.5 280 0 min 1,05 klux 0 W/m 7,9 C 10,3 C
06.07.2020 21:13 14,2 C 8,6 C 67 % 1018,1 hPa 0,0 l/m 9,5 km/h (2 Bft) W67.5 280 0 min 1,56 klux 1 W/m 8,2 C 12,5 C
06.07.2020 21:08 14,3 C 8,6 C 66 % 1018,1 hPa 0,0 l/m 11,5 km/h (2 Bft) W-NW67.5 285 0 min 2,15 klux 2 W/m 8,0 C 11,7 C
06.07.2020 21:03 14,4 C 8,6 C 65 % 1018,1 hPa 0,0 l/m 8,2 km/h (2 Bft) W-NW67.5 295 5 min 2,78 klux 3 W/m 7,9 C 13,4 C
_ Min-Zeit 22:23 00:03 16:53 04:23 - 00:03 - - - - - 17:08 22:23
Minimum _ 12,2 C 8,6 C 41 % 1010,0 hPa - 0,0 km/h (0 Bft) - - - - - 6,2 C 5,4 C
_ Max-Zeit 00:23 00:03 07:18 22:23 07:13 22:23 - - 09:34 13:54 13:54 00:08 00:23
Maximum _ 21,6 C 8,6 C 78 % 1019,5 hPa 0,3 l/m 22,8 km/h
W (4 Bft)
- - 6 min 107 klux 823 W/m 16,0 C 21,6 C
Durchschnitt _ 18,6 C 8,6 C 62 % 1013,1 hPa #0,3 l/m 1,5 km/h (1 Bft) W-NW - #7:26 h 29,4 klux 270 W/m 10,8 C 18,3 C
copyright (c) - www.lichtentanne-wetter.de